Main page
METAR-TAF:

METAR-TAF

Airports :

RAF Waddington

Waddington, England

latitude: 53-10N, longitude: 000-31W, elevation: 68 m

Current weather observation

The report was made 1 hour and 12 minutes ago, at 19:50 UTC
Wind 14 kt from the North
Temperature 5°C
Humidity 65%
Pressure 1036 hPa
Visibility 10 km or more

METAR: EGXW 281950Z AUTO 01014KT 9999 SCT032/// 05/M01 Q1036

Time: 21:02 (21:02 UTC)

Forecast

The report was made 28 hours and 50 minutes ago, at 16:12 UTC
Forecast valid from 27 at 18 UTC to 28 at 12 UTC
Wind 12 kt from the North/Northeast
Visibility 10 km or more
no clouds below 1500 m and no cumulonimbus
Probability 30%
from 27 at 22 UTC to 28 at 04 UTC
Visibility: 7000 m
mist
Temporary
from 28 at 04 UTC to 28 at 12 UTC
Broken clouds at a height of 1500 ft
Becoming
from 28 at 08 UTC to 28 at 11 UTC
Wind 18 kt from the North/Northeast with gusts up to 28 kt

TAF: EGXW 271612Z 2718/2812 03012KT CAVOK PROB30 2722/2804 7000 BR TEMPO 2804/2812 BKN015 BECMG 2808/2811 03018G28KT

Weather observations and forecasts of more than 4000 airports (METAR and TAF reports).

The available stations are represented by yellow and red dots on the map.

Hover mouse over dot to see the name of the station.

Then click to see weather observations and forecasts.

To change the map : click on the green buttons with a black cross to zoom in, on the green button with a dash to zoom out, or on the green arrows for adjacent maps.


METAR-TAF: